createdAt,value
2018-10-03T00:01:43.962Z,45.53
2018-10-03T00:04:12.835Z,41.93
2018-10-03T00:06:42.112Z,40.20
2018-10-03T00:09:11.741Z,39.10
2018-10-03T00:11:40.929Z,43.00
2018-10-03T00:14:09.820Z,38.37
2018-10-03T00:16:39.028Z,34.63
2018-10-03T00:19:07.775Z,35.57
2018-10-03T00:21:36.801Z,34.40
2018-10-03T00:24:05.625Z,37.03
2018-10-03T00:26:34.389Z,39.10
2018-10-03T00:29:03.107Z,37.13
2018-10-03T00:31:31.916Z,37.97
2018-10-03T00:34:00.843Z,36.40
2018-10-03T00:36:29.844Z,34.43
2018-10-03T00:38:59.157Z,35.13
2018-10-03T00:41:27.936Z,35.10
2018-10-03T00:43:56.721Z,30.90
2018-10-03T00:46:25.442Z,37.57
2018-10-03T00:48:54.401Z,34.33
2018-10-03T00:51:23.269Z,29.20
2018-10-03T00:53:52.440Z,30.60
2018-10-03T00:56:21.388Z,30.23
2018-10-03T00:58:50.090Z,24.23
2018-10-03T01:01:19.105Z,26.03
2018-10-03T01:03:47.794Z,29.57
2018-10-03T01:06:16.748Z,30.37
2018-10-03T01:08:45.588Z,28.53
2018-10-03T01:11:14.636Z,28.80
2018-10-03T01:13:43.404Z,29.73
2018-10-03T01:16:12.545Z,30.87
2018-10-03T01:18:41.620Z,27.90
2018-10-03T01:21:10.391Z,25.90
2018-10-03T01:23:39.644Z,27.37
2018-10-03T01:26:08.597Z,29.00
2018-10-03T01:28:37.422Z,23.87
2018-10-03T01:31:06.370Z,21.80
2018-10-03T01:33:35.014Z,24.07
2018-10-03T01:36:03.841Z,22.30
2018-10-03T01:38:32.823Z,23.73
2018-10-03T01:41:01.480Z,19.63
2018-10-03T01:43:30.737Z,22.43
2018-10-03T01:45:59.770Z,22.97
2018-10-03T01:48:28.617Z,22.17
2018-10-03T01:50:57.519Z,21.27
2018-10-03T01:53:26.693Z,22.43
2018-10-03T01:55:55.382Z,20.60
2018-10-03T01:58:24.245Z,22.77
2018-10-03T02:00:53.298Z,23.23
2018-10-03T02:03:21.940Z,20.67
2018-10-03T02:05:50.975Z,23.40
2018-10-03T02:08:20.081Z,24.17
2018-10-03T02:10:48.853Z,24.17
2018-10-03T02:13:18.049Z,19.73
2018-10-03T02:15:47.264Z,20.30
2018-10-03T02:18:16.166Z,22.50
2018-10-03T02:20:45.033Z,21.43
2018-10-03T02:23:14.411Z,22.70
2018-10-03T02:25:43.451Z,20.03
2018-10-03T02:28:12.074Z,20.30
2018-10-03T02:30:41.079Z,19.47
2018-10-03T02:33:09.825Z,21.83
2018-10-03T02:35:38.964Z,21.57
2018-10-03T02:38:08.060Z,19.77
2018-10-03T02:40:36.688Z,19.57
2018-10-03T02:43:05.411Z,19.80
2018-10-03T02:45:34.636Z,22.17
2018-10-03T02:48:03.356Z,19.73
2018-10-03T02:50:32.091Z,22.53
2018-10-03T02:53:00.963Z,20.33
2018-10-03T02:55:29.962Z,22.27
2018-10-03T02:57:59.309Z,18.57
2018-10-03T03:00:27.963Z,20.63
2018-10-03T03:02:56.926Z,21.30
2018-10-03T03:05:25.665Z,23.17
2018-10-03T03:07:54.527Z,21.17
2018-10-03T03:10:23.263Z,19.13
2018-10-03T03:12:52.127Z,20.97
2018-10-03T03:15:20.795Z,20.97
2018-10-03T03:17:49.766Z,19.43
2018-10-03T03:20:19.107Z,19.10
2018-10-03T03:22:48.053Z,23.07
2018-10-03T03:25:17.034Z,17.43
2018-10-03T03:27:46.029Z,18.97
2018-10-03T03:30:14.690Z,18.07
2018-10-03T03:32:43.402Z,16.40
2018-10-03T03:35:12.408Z,18.80
2018-10-03T03:37:41.412Z,17.97
2018-10-03T03:40:10.354Z,19.00
2018-10-03T03:42:39.391Z,19.27
2018-10-03T03:45:08.555Z,23.67
2018-10-03T03:47:37.511Z,16.50
2018-10-03T03:50:06.460Z,17.80
2018-10-03T03:52:35.355Z,19.83
2018-10-03T03:55:04.197Z,21.20
2018-10-03T03:57:33.146Z,14.93
2018-10-03T04:00:01.892Z,15.83
2018-10-03T04:02:30.585Z,18.60
2018-10-03T04:04:59.566Z,19.73
2018-10-03T04:07:28.670Z,15.47
2018-10-03T04:09:57.627Z,18.27
2018-10-03T04:12:26.802Z,18.67
2018-10-03T04:14:55.774Z,20.33
2018-10-03T04:17:24.541Z,19.20
2018-10-03T04:19:53.318Z,24.67
2018-10-03T04:22:22.357Z,18.40
2018-10-03T04:24:51.438Z,24.73
2018-10-03T04:27:20.606Z,27.00
2018-10-03T04:29:49.373Z,21.23
2018-10-03T04:32:17.963Z,29.10
2018-10-03T04:34:46.563Z,21.10
2018-10-03T04:37:15.306Z,21.90
2018-10-03T04:39:44.265Z,30.80
2018-10-03T04:42:13.237Z,17.73
2018-10-03T04:44:42.150Z,21.10
2018-10-03T04:47:11.119Z,23.07
2018-10-03T04:49:40.185Z,25.43
2018-10-03T04:52:08.978Z,22.37
2018-10-03T04:54:37.846Z,20.47
2018-10-03T04:57:07.255Z,21.57
2018-10-03T04:59:36.020Z,24.57
2018-10-03T05:02:04.788Z,22.47
2018-10-03T05:04:33.782Z,20.93
2018-10-03T05:07:02.602Z,26.37
2018-10-03T05:09:31.386Z,20.00
2018-10-03T05:12:00.770Z,22.83
2018-10-03T05:14:29.801Z,24.63
2018-10-03T05:16:59.369Z,20.33
2018-10-03T05:19:28.276Z,27.40
2018-10-03T05:21:57.061Z,24.53
2018-10-03T05:24:26.482Z,20.13
2018-10-03T05:26:55.376Z,16.87
2018-10-03T05:29:24.258Z,19.80
2018-10-03T05:31:53.309Z,18.40
2018-10-03T05:34:22.029Z,19.13
2018-10-03T05:36:51.228Z,18.77
2018-10-03T05:39:20.430Z,16.47
2018-10-03T05:41:49.162Z,16.30
2018-10-03T05:44:18.018Z,19.37
2018-10-03T05:46:47.406Z,17.47
2018-10-03T05:49:16.430Z,23.20
2018-10-03T05:51:45.165Z,18.70
2018-10-03T05:54:14.143Z,12.80
2018-10-03T05:56:43.117Z,15.63
2018-10-03T05:59:11.981Z,14.67
2018-10-03T06:01:41.006Z,14.57
2018-10-03T06:04:09.739Z,20.57
2018-10-03T06:06:38.429Z,11.23
2018-10-03T06:09:10.627Z,15.67
2018-10-03T06:11:39.512Z,14.20
2018-10-03T06:14:13.724Z,16.13
2018-10-03T06:16:42.632Z,19.13
2018-10-03T06:19:11.950Z,11.60
2018-10-03T06:21:40.983Z,11.73
2018-10-03T06:24:09.759Z,11.53
2018-10-03T06:26:39.170Z,11.83
2018-10-03T06:29:07.928Z,11.50
2018-10-03T06:31:37.154Z,16.27
2018-10-03T06:34:06.040Z,14.50
2018-10-03T06:36:34.786Z,8.87
2018-10-03T06:39:04.116Z,10.53
2018-10-03T06:41:33.150Z,10.63
2018-10-03T06:44:01.726Z,11.90
2018-10-03T06:46:30.874Z,14.43
2018-10-03T06:48:59.724Z,11.70
2018-10-03T06:51:28.643Z,10.83
2018-10-03T06:53:57.664Z,12.00
2018-10-03T06:56:26.745Z,11.33
2018-10-03T06:58:55.727Z,12.73
2018-10-03T07:01:24.629Z,16.90
2018-10-03T07:03:53.462Z,13.80
2018-10-03T07:06:22.224Z,13.03
2018-10-03T07:08:51.239Z,11.53
2018-10-03T07:11:20.146Z,11.10
2018-10-03T07:13:49.243Z,9.27
2018-10-03T07:16:18.318Z,14.93
2018-10-03T07:18:47.415Z,8.80
2018-10-03T07:21:16.151Z,10.43
2018-10-03T07:23:45.063Z,12.67
2018-10-03T07:26:14.357Z,9.53
2018-10-03T07:28:43.569Z,11.33
2018-10-03T07:31:12.355Z,10.03
2018-10-03T07:33:41.326Z,10.23
2018-10-03T07:36:09.978Z,11.93
2018-10-03T07:38:38.590Z,11.77
2018-10-03T07:41:07.723Z,9.47
2018-10-03T07:43:36.691Z,15.23
2018-10-03T07:46:05.384Z,9.80
2018-10-03T07:48:34.327Z,9.60
2018-10-03T07:51:03.079Z,12.20
2018-10-03T07:53:32.096Z,10.80
2018-10-03T07:56:00.735Z,9.83
2018-10-03T07:58:29.951Z,11.73
2018-10-03T08:00:58.949Z,11.80
2018-10-03T08:03:27.591Z,12.80
2018-10-03T08:05:56.213Z,9.93
2018-10-03T08:08:25.279Z,8.37
2018-10-03T08:10:54.431Z,9.33
2018-10-03T08:13:23.646Z,10.20
2018-10-03T08:15:53.806Z,8.97
2018-10-03T08:18:22.562Z,8.30
2018-10-03T08:20:51.730Z,9.10
2018-10-03T08:23:20.509Z,7.17
2018-10-03T08:25:49.232Z,8.63
2018-10-03T08:28:18.622Z,9.97
2018-10-03T08:30:47.390Z,11.33
2018-10-03T08:33:16.172Z,8.73
2018-10-03T08:35:44.819Z,11.80
2018-10-03T08:38:13.550Z,10.27
2018-10-03T08:40:42.425Z,13.07
2018-10-03T08:43:11.700Z,9.67
2018-10-03T08:45:40.742Z,9.73
2018-10-03T08:48:09.563Z,9.17
2018-10-03T08:50:38.839Z,7.33
2018-10-03T08:53:07.914Z,7.67
2018-10-03T08:55:36.818Z,8.47
2018-10-03T08:58:05.932Z,8.03
2018-10-03T09:00:34.690Z,7.43
2018-10-03T09:03:03.390Z,9.13
2018-10-03T09:05:31.974Z,5.93
2018-10-03T09:08:10.103Z,7.60
2018-10-03T09:10:40.185Z,10.30
2018-10-03T09:13:09.172Z,8.13
2018-10-03T09:15:38.062Z,7.60
2018-10-03T09:18:06.987Z,7.10
2018-10-03T09:20:36.167Z,10.10
2018-10-03T09:23:05.275Z,9.07
2018-10-03T09:25:34.486Z,8.20
2018-10-03T09:28:03.603Z,8.93
2018-10-03T09:30:32.363Z,7.73
2018-10-03T09:33:01.585Z,11.50
2018-10-03T09:35:30.184Z,8.10
2018-10-03T09:37:58.945Z,14.73
2018-10-03T09:40:28.048Z,9.23
2018-10-03T09:42:56.805Z,10.97
2018-10-03T09:45:25.909Z,8.83
2018-10-03T09:47:55.022Z,10.27
2018-10-03T09:50:24.074Z,8.30
2018-10-03T09:52:52.999Z,8.47
2018-10-03T09:55:22.041Z,8.37
2018-10-03T09:57:55.942Z,8.20
2018-10-03T10:00:31.266Z,8.83
2018-10-03T10:03:01.815Z,9.90
2018-10-03T10:05:31.258Z,11.53
2018-10-03T10:08:00.826Z,13.00
2018-10-03T10:10:30.056Z,6.97
2018-10-03T10:12:59.282Z,9.90
2018-10-03T10:15:28.427Z,9.03
2018-10-03T10:17:57.388Z,8.87
2018-10-03T10:20:26.143Z,8.47
2018-10-03T10:22:55.316Z,11.03
2018-10-03T10:25:24.414Z,11.77
2018-10-03T10:27:53.356Z,9.07
2018-10-03T10:30:22.422Z,12.17
2018-10-03T10:32:51.214Z,9.77
2018-10-03T10:35:19.784Z,10.37
2018-10-03T10:37:48.553Z,7.50
2018-10-03T10:40:17.461Z,8.47
2018-10-03T10:42:46.363Z,14.83
2018-10-03T10:45:15.376Z,18.97
2018-10-03T10:47:44.433Z,10.20
2018-10-03T10:50:13.669Z,8.57
2018-10-03T10:52:42.234Z,8.77
2018-10-03T10:55:11.157Z,9.43
2018-10-03T10:57:40.450Z,9.00
2018-10-03T11:00:09.383Z,7.27
2018-10-03T11:02:38.151Z,9.63
2018-10-03T11:05:07.686Z,8.60
2018-10-03T11:07:36.378Z,10.20
2018-10-03T11:10:05.139Z,11.40
2018-10-03T11:12:34.037Z,9.93
2018-10-03T11:15:02.861Z,9.17
2018-10-03T11:17:31.722Z,9.17
2018-10-03T11:20:00.622Z,9.27
2018-10-03T11:22:29.420Z,10.00
2018-10-03T11:24:58.395Z,8.40
2018-10-03T11:27:26.947Z,8.53
2018-10-03T11:29:55.888Z,7.30
2018-10-03T11:32:24.575Z,8.07
2018-10-03T11:34:53.245Z,8.07
2018-10-03T11:37:21.970Z,8.93
2018-10-03T11:39:50.838Z,8.33
2018-10-03T11:42:19.454Z,7.83
2018-10-03T11:44:48.359Z,24.30
2018-10-03T11:47:17.045Z,9.83
2018-10-03T11:49:45.754Z,9.73
2018-10-03T11:52:14.829Z,7.40
2018-10-03T11:54:43.569Z,8.90
2018-10-03T11:57:12.774Z,17.70
2018-10-03T11:59:42.423Z,7.53
2018-10-03T12:02:11.255Z,8.47
2018-10-03T12:04:39.909Z,8.23
2018-10-03T12:07:08.482Z,5.87
2018-10-03T12:09:37.576Z,8.70
2018-10-03T12:12:06.439Z,11.97
2018-10-03T12:14:35.322Z,12.07
2018-10-03T12:17:04.112Z,10.17
2018-10-03T12:19:33.173Z,7.70
2018-10-03T12:22:02.066Z,10.83
2018-10-03T12:24:30.821Z,9.13
2018-10-03T12:26:59.522Z,9.20
2018-10-03T12:29:28.445Z,11.47
2018-10-03T12:31:57.516Z,6.55
2018-10-03T12:34:26.389Z,12.83
2018-10-03T12:36:55.063Z,8.33
2018-10-03T12:39:24.082Z,9.80
2018-10-03T12:41:53.102Z,9.40
2018-10-03T12:44:21.868Z,7.63
2018-10-03T12:46:51.011Z,9.10
2018-10-03T12:49:20.238Z,13.80
2018-10-03T12:51:49.103Z,6.77
2018-10-03T12:54:18.060Z,10.33
2018-10-03T12:56:47.127Z,10.53
2018-10-03T12:59:16.083Z,12.27
2018-10-03T13:01:45.038Z,11.20
2018-10-03T13:04:13.739Z,11.47
2018-10-03T13:06:42.591Z,7.57
2018-10-03T13:09:13.914Z,7.17
2018-10-03T13:11:43.165Z,11.53
2018-10-03T13:14:12.525Z,6.73
2018-10-03T13:16:41.654Z,8.67
2018-10-03T13:19:10.771Z,9.93
2018-10-03T13:21:40.003Z,9.93
2018-10-03T13:24:09.275Z,11.13
2018-10-03T13:26:38.060Z,9.37
2018-10-03T13:29:06.898Z,8.13
2018-10-03T13:31:35.952Z,11.07
2018-10-03T13:34:04.720Z,7.77
2018-10-03T13:36:33.431Z,6.77
2018-10-03T13:39:02.584Z,6.50
2018-10-03T13:41:33.990Z,7.67
2018-10-03T13:44:03.150Z,7.17
2018-10-03T13:46:32.060Z,10.87
2018-10-03T13:49:03.703Z,8.83
2018-10-03T13:51:32.477Z,7.93
2018-10-03T13:54:01.321Z,8.33
2018-10-03T13:56:29.946Z,9.13
2018-10-03T13:58:59.010Z,8.77
2018-10-03T14:01:27.734Z,8.20
2018-10-03T14:03:56.804Z,13.37
2018-10-03T14:06:25.564Z,10.70
2018-10-03T14:08:54.363Z,8.83
2018-10-03T14:11:23.266Z,9.53
2018-10-03T14:13:52.220Z,12.00
2018-10-03T14:16:21.354Z,4.20
2018-10-03T14:18:50.560Z,9.13
2018-10-03T14:21:19.452Z,5.40
2018-10-03T14:23:48.534Z,8.87
2018-10-03T14:26:17.468Z,6.97
2018-10-03T14:28:46.369Z,7.27
2018-10-03T14:31:15.293Z,8.03
2018-10-03T14:33:43.948Z,8.33
2018-10-03T14:36:12.883Z,9.07
2018-10-03T14:38:41.648Z,8.60
2018-10-03T14:41:10.692Z,6.47
2018-10-03T14:43:39.572Z,9.03
2018-10-03T14:46:08.503Z,6.83
2018-10-03T14:48:37.186Z,6.57
2018-10-03T14:51:06.215Z,9.13
2018-10-03T14:53:35.481Z,5.87
2018-10-03T14:56:04.283Z,9.23
2018-10-03T14:58:33.303Z,6.23
2018-10-03T15:01:02.099Z,5.93
2018-10-03T15:03:30.943Z,9.13
2018-10-03T15:05:59.541Z,10.33
2018-10-03T15:08:28.304Z,8.60
2018-10-03T15:10:57.166Z,8.10
2018-10-03T15:13:26.193Z,10.40
2018-10-03T15:15:55.215Z,4.97
2018-10-03T15:18:24.007Z,6.43
2018-10-03T15:20:53.099Z,5.37
2018-10-03T15:23:21.979Z,7.00
2018-10-03T15:25:50.691Z,7.30
2018-10-03T15:28:19.720Z,8.33
2018-10-03T15:30:48.546Z,8.10
2018-10-03T15:33:17.176Z,10.73
2018-10-03T15:35:46.100Z,7.67
2018-10-03T15:38:14.930Z,12.10
2018-10-03T15:40:43.834Z,7.10
2018-10-03T15:43:12.551Z,10.57
2018-10-03T15:45:41.308Z,7.03
2018-10-03T15:48:10.157Z,11.73
2018-10-03T15:50:38.969Z,14.07
2018-10-03T15:53:08.211Z,11.10
2018-10-03T15:55:37.058Z,11.17
2018-10-03T15:58:06.073Z,6.73
2018-10-03T16:00:35.092Z,9.17
2018-10-03T16:03:03.684Z,11.37
2018-10-03T16:05:32.424Z,7.57
2018-10-03T16:08:01.184Z,9.30
2018-10-03T16:10:29.826Z,9.17
2018-10-03T16:12:58.642Z,8.07
2018-10-03T16:15:27.403Z,7.87
2018-10-03T16:17:56.391Z,10.03
2018-10-03T16:20:25.167Z,6.57
2018-10-03T16:22:54.002Z,8.50
2018-10-03T16:25:23.230Z,8.90
2018-10-03T16:27:52.126Z,10.13
2018-10-03T16:30:21.232Z,13.67
2018-10-03T16:32:50.291Z,10.47
2018-10-03T16:35:18.859Z,10.73
2018-10-03T16:37:47.500Z,16.57
2018-10-03T16:40:16.155Z,10.03
2018-10-03T16:42:45.130Z,8.70
2018-10-03T16:45:14.409Z,7.03
2018-10-03T16:47:43.276Z,9.83
2018-10-03T16:50:12.063Z,7.40
2018-10-03T16:52:40.977Z,5.87
2018-10-03T16:55:10.092Z,7.97
2018-10-03T16:57:39.003Z,6.50
2018-10-03T17:00:07.744Z,7.10
2018-10-03T17:02:36.767Z,8.10
2018-10-03T17:05:05.671Z,8.40
2018-10-03T17:07:34.376Z,7.50
2018-10-03T17:10:04.870Z,10.40
2018-10-03T17:12:33.507Z,10.87
2018-10-03T17:15:02.533Z,6.53
2018-10-03T17:17:31.470Z,5.17
2018-10-03T17:20:00.698Z,7.03
2018-10-03T17:22:29.902Z,8.90
2018-10-03T17:24:59.028Z,7.73
2018-10-03T17:27:28.081Z,8.17
2018-10-03T17:29:56.742Z,9.97
2018-10-03T17:32:25.731Z,9.43
2018-10-03T17:34:54.578Z,9.40
2018-10-03T17:37:23.280Z,5.20
2018-10-03T17:39:52.210Z,5.80
2018-10-03T17:42:21.167Z,6.97
2018-10-03T17:44:50.059Z,6.90
2018-10-03T17:47:18.990Z,5.10
2018-10-03T17:49:47.801Z,7.43
2018-10-03T17:52:16.858Z,8.27
2018-10-03T17:54:45.769Z,9.57
2018-10-03T17:57:14.452Z,6.53
2018-10-03T17:59:45.615Z,5.90
2018-10-03T18:02:15.140Z,9.40
2018-10-03T18:04:43.956Z,5.43
2018-10-03T18:07:13.070Z,8.63
2018-10-03T18:09:41.763Z,9.20
2018-10-03T18:12:10.487Z,6.33
2018-10-03T18:14:39.596Z,6.90
2018-10-03T18:17:08.322Z,8.40
2018-10-03T18:19:37.103Z,8.10
2018-10-03T18:22:06.364Z,6.40
2018-10-03T18:24:35.188Z,13.27
2018-10-03T18:27:03.867Z,6.63
2018-10-03T18:29:32.654Z,10.07
2018-10-03T18:32:01.491Z,9.63
2018-10-03T18:34:30.582Z,9.17
2018-10-03T18:36:59.394Z,5.80
2018-10-03T18:39:28.111Z,10.67
2018-10-03T18:41:56.684Z,7.30
2018-10-03T18:44:25.927Z,6.30
2018-10-03T18:46:54.928Z,7.07
2018-10-03T18:49:23.659Z,9.17
2018-10-03T18:51:53.018Z,11.43
2018-10-03T18:54:21.994Z,6.47
2018-10-03T18:56:50.792Z,5.47
2018-10-03T18:59:19.624Z,8.53
2018-10-03T19:01:48.659Z,10.17
2018-10-03T19:04:17.500Z,24.27
2018-10-03T19:06:46.202Z,11.53
2018-10-03T19:09:14.773Z,10.07
2018-10-03T19:11:43.479Z,8.53
2018-10-03T19:14:12.438Z,4.23
2018-10-03T19:16:41.445Z,8.87
2018-10-03T19:19:10.490Z,4.90
2018-10-03T19:21:39.327Z,6.10
2018-10-03T19:24:08.169Z,6.70
2018-10-03T19:26:37.191Z,6.33
2018-10-03T19:29:06.119Z,5.60
2018-10-03T19:31:34.942Z,7.47
2018-10-03T19:34:03.845Z,4.43
2018-10-03T19:36:32.843Z,4.63
2018-10-03T19:39:01.467Z,5.17
2018-10-03T19:41:30.110Z,7.30
2018-10-03T19:43:58.910Z,5.60
2018-10-03T19:46:27.694Z,6.33
2018-10-03T19:48:56.697Z,6.53
2018-10-03T19:51:25.774Z,4.53
2018-10-03T19:53:54.524Z,5.13
2018-10-03T19:56:23.350Z,5.70
2018-10-03T19:58:52.066Z,4.60
2018-10-03T20:01:21.037Z,7.13
2018-10-03T20:03:50.049Z,4.10
2018-10-03T20:06:19.179Z,4.83
2018-10-03T20:08:47.818Z,6.60
2018-10-03T20:11:16.507Z,6.37
2018-10-03T20:13:45.712Z,3.43
2018-10-03T20:16:14.371Z,6.23
2018-10-03T20:18:43.241Z,5.03
2018-10-03T20:21:12.266Z,4.33
2018-10-03T20:23:41.141Z,4.20
2018-10-03T20:26:10.164Z,4.47
2018-10-03T20:28:39.052Z,3.30
2018-10-03T20:31:07.976Z,5.83
2018-10-03T20:33:37.374Z,5.83
2018-10-03T20:36:06.288Z,2.63
2018-10-03T20:38:35.442Z,3.70
2018-10-03T20:41:04.450Z,6.77
2018-10-03T20:43:33.298Z,6.23
2018-10-03T20:46:02.104Z,4.07
2018-10-03T20:48:31.323Z,3.83
2018-10-03T20:51:00.098Z,2.83
2018-10-03T20:53:28.735Z,5.40
2018-10-03T20:55:57.911Z,2.87
2018-10-03T20:58:26.782Z,5.07
2018-10-03T21:00:55.670Z,5.87
2018-10-03T21:03:24.691Z,7.37
2018-10-03T21:05:53.741Z,2.90
2018-10-03T21:08:22.546Z,5.03
2018-10-03T21:10:51.863Z,3.33
2018-10-03T21:13:20.789Z,3.53
2018-10-03T21:15:49.736Z,3.57
2018-10-03T21:18:18.732Z,2.90
2018-10-03T21:20:47.506Z,2.80
2018-10-03T21:23:16.342Z,4.83
2018-10-03T21:25:45.294Z,2.87
2018-10-03T21:28:14.362Z,2.90
2018-10-03T21:30:43.224Z,3.60
2018-10-03T21:33:12.554Z,2.73
2018-10-03T21:35:41.443Z,3.47
2018-10-03T21:38:10.131Z,3.93
2018-10-03T21:40:39.063Z,3.37
2018-10-03T21:43:07.831Z,5.87
2018-10-03T21:45:36.567Z,3.83
2018-10-03T21:48:06.063Z,4.97
2018-10-03T21:50:34.728Z,3.50
2018-10-03T21:53:03.692Z,4.50
2018-10-03T21:55:33.052Z,3.17
2018-10-03T21:58:02.180Z,4.60
2018-10-03T22:00:36.367Z,5.10
2018-10-03T22:03:05.330Z,3.43
2018-10-03T22:05:33.906Z,4.00
2018-10-03T22:08:02.831Z,3.90
2018-10-03T22:10:31.645Z,4.60
2018-10-03T22:13:00.879Z,4.17
2018-10-03T22:15:29.504Z,6.13
2018-10-03T22:17:58.511Z,3.90
2018-10-03T22:20:27.240Z,4.67
2018-10-03T22:22:56.466Z,4.63
2018-10-03T22:25:25.346Z,4.07
2018-10-03T22:27:54.324Z,4.20
2018-10-03T22:30:23.359Z,3.10
2018-10-03T22:32:52.481Z,6.20
2018-10-03T22:35:21.434Z,3.40
2018-10-03T22:37:50.354Z,6.00
2018-10-03T22:40:19.075Z,4.03
2018-10-03T22:42:47.638Z,6.37
2018-10-03T22:45:16.719Z,5.73
2018-10-03T22:47:45.694Z,5.10
2018-10-03T22:50:14.747Z,3.23
2018-10-03T22:52:43.999Z,3.77
2018-10-03T22:55:12.786Z,4.20
2018-10-03T22:57:41.968Z,3.50
2018-10-03T23:00:11.367Z,3.80
2018-10-03T23:02:39.950Z,3.23
2018-10-03T23:05:08.854Z,4.07
2018-10-03T23:07:37.717Z,3.47
2018-10-03T23:10:06.946Z,5.63
2018-10-03T23:12:35.671Z,4.13
2018-10-03T23:15:04.843Z,2.93
2018-10-03T23:17:33.818Z,3.50
2018-10-03T23:20:02.842Z,4.17
2018-10-03T23:22:31.677Z,5.13
2018-10-03T23:25:00.532Z,5.33
2018-10-03T23:27:29.832Z,5.80
2018-10-03T23:29:58.620Z,4.13
2018-10-03T23:32:27.396Z,6.07
2018-10-03T23:34:56.452Z,3.73
2018-10-03T23:37:25.168Z,4.43
2018-10-03T23:39:53.794Z,4.50
2018-10-03T23:42:22.784Z,4.60
2018-10-03T23:44:51.379Z,3.13
2018-10-03T23:47:20.505Z,4.07
2018-10-03T23:49:49.739Z,5.10
2018-10-03T23:52:18.739Z,7.27
2018-10-03T23:54:47.605Z,3.70
2018-10-03T23:57:16.427Z,3.63
2018-10-03T23:59:45.298Z,3.97
